Time;durP1;ratioP1;P1;durP2;ratioP2;P2;SDS_P1;SDS_P2;PMS_P1;PMS_P2;Temp;Humidity;BMP_temperature;BMP_pressure;BME280_temperature;BME280_humidity;BME280_pressure;Samples;Min_cycle;Max_cycle;Signal;HPM_P1;HPM_P2
2022/11/15 00:01:23;;;;;;;34.00;16.15;;;12.30;99.90;;;;;;4099301;28;20685;-92
2022/11/15 00:03:42;;;;;;;30.23;15.20;;;12.30;99.90;;;;;;4099675;28;20225;-89
2022/11/15 00:06:03;;;;;;;26.55;14.55;;;12.30;99.90;;;;;;4100929;28;20788;-92
2022/11/15 00:08:21;;;;;;;26.70;15.30;;;12.30;99.90;;;;;;4088782;29;20222;-91
2022/11/15 00:10:41;;;;;;;33.70;16.73;;;12.40;99.90;;;;;;4100735;28;20698;-92
2022/11/15 00:13:04;;;;;;;27.80;15.45;;;12.40;99.90;;;;;;4101068;28;20209;-89
2022/11/15 00:15:23;;;;;;;28.23;17.13;;;12.50;99.90;;;;;;4102214;28;20178;-90
2022/11/15 00:17:42;;;;;;;30.42;15.48;;;12.60;99.90;;;;;;4101883;28;20689;-88
2022/11/15 00:20:01;;;;;;;23.50;14.93;;;12.60;99.90;;;;;;4100928;28;20189;-92
2022/11/15 00:22:20;;;;;;;32.55;15.90;;;12.60;99.90;;;;;;4102446;28;20208;-96
2022/11/15 00:24:39;;;;;;;29.77;15.82;;;12.70;99.90;;;;;;4100461;28;20190;-96
2022/11/15 00:26:58;;;;;;;25.90;14.90;;;12.60;99.90;;;;;;4100035;28;20746;-96
2022/11/15 00:29:19;;;;;;;30.92;16.15;;;12.60;99.90;;;;;;4086665;29;20230;-96
2022/11/15 00:31:38;;;;;;;22.42;14.63;;;12.60;99.90;;;;;;4099271;28;20305;-96
2022/11/15 00:33:57;;;;;;;26.83;13.98;;;12.70;99.90;;;;;;4099401;28;20238;-92
2022/11/15 00:36:16;;;;;;;23.08;13.65;;;12.80;99.90;;;;;;4100515;28;20273;-91
2022/11/15 00:38:38;;;;;;;22.55;13.38;;;12.80;99.90;;;;;;4100350;28;20174;-91
2022/11/15 00:40:57;;;;;;;23.30;13.23;;;12.90;99.90;;;;;;4101832;28;20674;-91
2022/11/15 00:43:16;;;;;;;33.50;14.30;;;12.90;99.90;;;;;;4100784;28;20210;-91
2022/11/15 00:45:36;;;;;;;26.33;13.75;;;12.80;99.90;;;;;;4105290;28;20186;-95
2022/11/15 00:47:55;;;;;;;22.40;13.73;;;12.90;99.90;;;;;;4104049;28;20185;-92
2022/11/15 00:50:14;;;;;;;26.75;13.98;;;12.90;99.90;;;;;;4103518;28;20234;-91
2022/11/15 00:52:33;;;;;;;23.88;13.55;;;12.80;99.90;;;;;;4104670;28;20658;-90
2022/11/15 00:54:52;;;;;;;27.23;14.48;;;12.70;99.90;;;;;;4102120;28;20286;-91
2022/11/15 00:57:12;;;;;;;27.40;14.32;;;12.60;99.90;;;;;;4100408;28;20241;-90
2022/11/15 00:59:31;;;;;;;26.63;14.38;;;12.60;99.90;;;;;;4106814;28;20237;-91
2022/11/15 01:01:50;;;;;;;27.35;14.77;;;12.70;99.90;;;;;;4104663;28;20406;-96
2022/11/15 01:04:10;;;;;;;27.00;14.82;;;12.60;99.90;;;;;;4103253;28;20290;-95
2022/11/15 01:06:29;;;;;;;25.52;15.27;;;12.60;99.90;;;;;;4104954;28;20266;-96
2022/11/15 01:08:48;;;;;;;28.13;14.27;;;12.70;99.90;;;;;;4101664;28;20185;-93
2022/11/15 01:11:10;;;;;;;22.70;14.52;;;12.60;99.90;;;;;;4101685;28;20695;-89
2022/11/15 01:13:34;;;;;;;24.23;13.57;;;12.70;99.90;;;;;;4103802;28;20217;-96
2022/11/15 01:15:53;;;;;;;25.67;14.57;;;12.90;99.90;;;;;;4101769;28;20702;-90
2022/11/15 01:18:13;;;;;;;26.80;13.88;;;12.80;99.90;;;;;;4102788;28;20702;-91
2022/11/15 01:20:32;;;;;;;25.92;14.63;;;12.70;99.90;;;;;;4103550;28;20279;-91
2022/11/15 01:22:52;;;;;;;25.95;13.65;;;12.70;99.90;;;;;;4103525;28;20255;-90
2022/11/15 01:25:11;;;;;;;26.08;13.32;;;12.60;99.90;;;;;;4107086;29;20658;-92
2022/11/15 01:27:34;;;;;;;24.15;12.75;;;12.70;99.90;;;;;;4090494;29;20218;-91
2022/11/15 01:29:53;;;;;;;23.27;12.80;;;12.70;99.90;;;;;;4103348;28;20188;-91
2022/11/15 01:32:13;;;;;;;25.38;13.38;;;12.80;99.90;;;;;;4103480;28;20686;-91
2022/11/15 01:34:32;;;;;;;24.25;13.43;;;12.80;99.90;;;;;;4104751;28;20186;-90
2022/11/15 01:36:52;;;;;;;22.52;13.45;;;12.80;99.90;;;;;;4103459;28;20658;-95
2022/11/15 01:39:11;;;;;;;22.60;12.60;;;12.70;99.90;;;;;;4105744;28;20296;-92
2022/11/15 01:41:32;;;;;;;24.08;13.23;;;12.80;99.90;;;;;;4103800;28;20190;-96
2022/11/15 01:44:33;;;;;;;24.73;12.68;;;12.80;99.90;;;;;;4102113;28;20234;-90
2022/11/15 01:46:52;;;;;;;19.92;11.80;;;12.80;99.90;;;;;;4104762;28;20185;-94
2022/11/15 01:49:15;;;;;;;21.25;12.10;;;12.70;99.90;;;;;;4103937;28;20190;-90
2022/11/15 01:51:35;;;;;;;23.38;12.38;;;12.50;99.90;;;;;;4101401;28;20222;-95
2022/11/15 01:54:19;;;;;;;21.42;12.18;;;12.60;99.90;;;;;;4102568;28;20201;-91
2022/11/15 01:57:04;;;;;;;21.45;13.02;;;12.60;99.90;;;;;;4103337;28;20225;-93
2022/11/15 01:59:23;;;;;;;23.10;12.85;;;12.80;99.90;;;;;;4103706;28;20193;-91
2022/11/15 02:01:43;;;;;;;21.15;11.75;;;12.60;99.90;;;;;;4102829;28;20189;-91
2022/11/15 02:04:16;;;;;;;25.08;13.77;;;12.60;99.90;;;;;;4102680;28;20206;-94
2022/11/15 02:06:36;;;;;;;24.38;12.68;;;12.60;99.90;;;;;;4102283;28;20436;-90
2022/11/15 02:08:57;;;;;;;22.05;12.77;;;12.60;99.90;;;;;;4100219;28;20600;-92
2022/11/15 02:11:17;;;;;;;25.48;12.85;;;12.60;99.90;;;;;;4103064;28;20278;-96
2022/11/15 02:13:36;;;;;;;22.00;13.05;;;12.70;99.90;;;;;;4100862;28;20230;-92
2022/11/15 02:16:01;;;;;;;23.15;12.95;;;12.60;99.90;;;;;;4101834;28;20275;-90
2022/11/15 02:18:34;;;;;;;24.60;12.93;;;12.70;99.90;;;;;;4102851;28;20194;-91
2022/11/15 02:21:14;;;;;;;24.13;12.63;;;12.70;99.90;;;;;;4100869;28;20278;-91
2022/11/15 02:24:27;;;;;;;27.60;13.10;;;12.70;99.90;;;;;;4103544;28;20226;-91
2022/11/15 02:26:52;;;;;;;17.58;11.70;;;12.60;99.90;;;;;;4088208;29;20242;-91
2022/11/15 02:29:49;;;;;;;19.70;11.93;;;12.60;99.90;;;;;;4100557;28;20193;-96
2022/11/15 02:32:17;;;;;;;19.10;10.05;;;12.70;99.90;;;;;;4103221;28;20230;-96
2022/11/15 02:34:58;;;;;;;20.02;9.63;;;12.50;99.90;;;;;;4107422;28;20186;-92
2022/11/15 02:37:55;;;;;;;11.70;8.98;;;12.70;99.90;;;;;;4104550;28;20686;-90
2022/11/15 02:40:41;;;;;;;16.75;8.75;;;12.70;99.90;;;;;;4105251;28;20271;-96
2022/11/15 02:45:53;;;;;;;19.48;9.13;;;12.80;99.90;;;;;;4094091;29;20189;-96
2022/11/15 02:48:15;;;;;;;16.25;8.57;;;12.80;99.90;;;;;;4104981;28;20178;-91
2022/11/15 02:50:34;;;;;;;16.92;8.85;;;12.80;99.90;;;;;;4107256;28;20193;-92
2022/11/15 02:52:58;;;;;;;17.17;8.95;;;12.70;99.90;;;;;;4107633;28;20174;-92
2022/11/15 02:55:34;;;;;;;16.67;9.32;;;12.60;99.90;;;;;;4095860;29;20174;-96
2022/11/15 02:58:32;;;;;;;20.10;9.35;;;12.60;99.90;;;;;;4106992;28;20710;-91
2022/11/15 03:01:07;;;;;;;14.30;8.65;;;12.50;99.90;;;;;;4108742;28;20190;-91
2022/11/15 03:03:38;;;;;;;18.65;9.10;;;12.50;99.90;;;;;;4105802;28;20598;-91
2022/11/15 03:06:28;;;;;;;18.25;9.25;;;12.50;99.90;;;;;;4108109;28;20197;-94
2022/11/15 03:09:28;;;;;;;16.70;8.73;;;12.60;99.90;;;;;;4103186;28;20193;-90
2022/11/15 03:11:54;;;;;;;14.25;8.35;;;12.70;99.90;;;;;;4094221;28;20275;-92
2022/11/15 03:14:30;;;;;;;12.75;7.82;;;12.60;99.90;;;;;;4106201;28;20667;-96
2022/11/15 03:17:21;;;;;;;15.65;7.65;;;12.50;99.90;;;;;;4104608;28;20173;-92
2022/11/15 03:19:52;;;;;;;18.55;7.68;;;12.50;99.90;;;;;;4104471;28;20181;-90
2022/11/15 03:22:16;;;;;;;18.13;6.90;;;12.50;99.90;;;;;;4104632;28;20193;-91
2022/11/15 03:24:38;;;;;;;14.93;6.68;;;12.50;99.90;;;;;;4102727;28;20708;-96
2022/11/15 03:27:00;;;;;;;15.07;6.57;;;12.60;99.90;;;;;;4105001;28;20198;-95
2022/11/15 03:29:25;;;;;;;10.90;5.93;;;12.60;99.90;;;;;;4102463;28;20258;-91
2022/11/15 03:31:48;;;;;;;15.88;6.05;;;12.50;99.90;;;;;;4108751;28;20810;-96
2022/11/15 03:34:14;;;;;;;15.57;5.93;;;12.50;99.90;;;;;;4104567;28;20327;-91
2022/11/15 03:36:34;;;;;;;11.05;5.70;;;12.40;99.90;;;;;;4102443;28;20190;-96
2022/11/15 03:39:06;;;;;;;11.52;5.90;;;12.30;99.90;;;;;;4106714;28;20186;-91
2022/11/15 03:41:52;;;;;;;17.20;6.40;;;12.20;99.90;;;;;;4092301;28;20549;-96
2022/11/15 03:44:34;;;;;;;19.23;6.20;;;12.40;99.90;;;;;;4103042;28;20230;-91
2022/11/15 03:47:09;;;;;;;13.10;6.10;;;12.30;99.90;;;;;;4105232;28;20182;-91
2022/11/15 03:49:33;;;;;;;10.93;5.72;;;12.30;99.90;;;;;;4093601;29;20222;-92
2022/11/15 03:51:56;;;;;;;21.85;6.13;;;12.40;99.90;;;;;;4106717;28;20234;-91
2022/11/15 03:54:15;;;;;;;13.63;5.88;;;12.40;99.90;;;;;;4107305;28;20605;-96
2022/11/15 03:56:34;;;;;;;15.60;5.90;;;12.30;99.90;;;;;;4104265;28;20206;-91
2022/11/15 03:58:53;;;;;;;9.57;5.70;;;12.30;99.90;;;;;;4103874;28;20193;-91
2022/11/15 04:01:12;;;;;;;12.02;5.97;;;12.40;99.90;;;;;;4101825;28;20670;-91
2022/11/15 04:03:32;;;;;;;14.70;6.25;;;12.40;99.90;;;;;;4106527;28;20206;-91
2022/11/15 04:05:51;;;;;;;14.50;5.97;;;12.20;99.90;;;;;;4103389;28;20246;-93
2022/11/15 04:08:10;;;;;;;11.20;5.35;;;12.00;99.90;;;;;;4104824;28;20178;-95
2022/11/15 04:10:29;;;;;;;9.70;5.05;;;11.90;99.90;;;;;;4091298;29;20198;-96
2022/11/15 04:12:48;;;;;;;10.05;5.07;;;12.00;99.90;;;;;;4103796;28;20197;-92
2022/11/15 04:15:11;;;;;;;16.20;5.05;;;11.90;99.90;;;;;;4103369;28;20201;-91
2022/11/15 04:17:30;;;;;;;13.95;5.32;;;12.00;99.90;;;;;;4102736;28;20278;-91
2022/11/15 04:25:05;;;;;;;12.18;4.70;;;11.90;99.90;;;;;;4093609;28;20198;-91
2022/11/15 04:27:24;;;;;;;11.23;5.10;;;12.00;99.90;;;;;;4089564;29;20187;-90
2022/11/15 04:29:43;;;;;;;12.68;4.85;;;11.90;99.90;;;;;;4106576;28;20253;-92
2022/11/15 04:32:04;;;;;;;10.00;4.85;;;11.90;99.90;;;;;;4102584;28;20237;-96
2022/11/15 04:34:23;;;;;;;7.65;4.05;;;11.80;99.90;;;;;;4101706;28;20214;-91
2022/11/15 04:39:20;;;;;;;8.07;3.67;;;11.60;99.90;;;;;;4091649;29;20670;-91
2022/11/15 04:41:40;;;;;;;8.27;3.42;;;11.60;99.90;;;;;;4101934;28;20178;-91
2022/11/15 04:43:59;;;;;;;15.15;3.83;;;11.50;99.90;;;;;;4103245;28;20213;-92
2022/11/15 04:46:20;;;;;;;6.45;3.20;;;11.50;99.90;;;;;;4107619;28;20665;-92
2022/11/15 04:48:40;;;;;;;7.30;3.67;;;11.50;99.90;;;;;;4104540;28;20596;-90
2022/11/15 04:50:59;;;;;;;13.45;3.60;;;11.40;99.90;;;;;;4107273;28;20626;-94
2022/11/15 04:53:18;;;;;;;11.15;3.47;;;11.50;99.90;;;;;;4104935;28;20214;-91
2022/11/15 04:55:38;;;;;;;11.07;3.22;;;11.40;99.90;;;;;;4105034;28;20230;-90
2022/11/15 04:58:01;;;;;;;10.80;3.40;;;11.40;99.90;;;;;;4104712;28;20226;-92
2022/11/15 05:00:22;;;;;;;10.57;3.05;;;11.30;99.90;;;;;;4095447;29;20187;-93
2022/11/15 05:05:22;;;;;;;7.07;3.83;;;11.30;99.90;;;;;;4095732;29;20182;-90
2022/11/15 05:07:41;;;;;;;11.75;3.35;;;11.20;99.90;;;;;;4107905;28;20210;-92
2022/11/15 05:10:01;;;;;;;16.17;3.78;;;11.40;99.90;;;;;;4109449;28;20193;-95
2022/11/15 05:12:20;;;;;;;10.35;3.28;;;11.50;99.90;;;;;;4094611;29;20230;-93
2022/11/15 05:14:42;;;;;;;9.65;3.40;;;11.30;99.90;;;;;;4107586;28;20205;-93
2022/11/15 05:17:01;;;;;;;11.20;3.50;;;11.10;99.90;;;;;;4107903;28;20210;-92
2022/11/15 05:19:21;;;;;;;12.95;3.25;;;10.90;99.90;;;;;;4095173;29;20198;-91
2022/11/15 05:21:41;;;;;;;5.78;3.15;;;10.90;99.90;;;;;;4103766;28;20583;-95
2022/11/15 05:24:01;;;;;;;6.38;2.80;;;10.80;99.90;;;;;;4105489;28;20733;-96
2022/11/15 05:26:22;;;;;;;7.20;2.80;;;10.80;99.90;;;;;;4103808;28;20185;-91
2022/11/15 05:28:45;;;;;;;7.80;2.70;;;10.70;99.90;;;;;;4091207;29;20239;-91
2022/11/15 05:31:06;;;;;;;9.27;2.70;;;10.70;99.90;;;;;;4105438;28;20213;-91
2022/11/15 05:33:26;;;;;;;9.23;2.30;;;10.70;99.90;;;;;;4109727;28;20237;-95
2022/11/15 05:36:03;;;;;;;14.10;2.72;;;10.60;99.90;;;;;;4106237;28;20193;-91
2022/11/15 05:38:23;;;;;;;13.27;2.45;;;10.50;99.90;;;;;;4106717;28;20642;-90
2022/11/15 05:40:42;;;;;;;10.05;2.60;;;10.70;99.90;;;;;;4107545;28;20210;-90
2022/11/15 05:43:04;;;;;;;8.15;2.53;;;10.70;99.90;;;;;;4109809;28;20214;-91
2022/11/15 05:45:23;;;;;;;13.77;2.58;;;11.00;99.90;;;;;;4108802;28;20233;-91
2022/11/15 05:47:43;;;;;;;12.63;2.60;;;11.20;99.90;;;;;;4106722;28;20194;-96
2022/11/15 05:50:12;;;;;;;7.00;2.90;;;11.30;99.90;;;;;;4097672;28;20745;-90
2022/11/15 05:52:47;;;;;;;5.65;2.15;;;11.50;99.90;;;;;;4106811;28;20718;-92
2022/11/15 05:55:08;;;;;;;10.60;2.20;;;11.40;99.90;;;;;;4108685;28;20188;-91
2022/11/15 05:57:27;;;;;;;6.95;2.35;;;11.40;99.90;;;;;;4109425;28;20178;-96
2022/11/15 05:59:46;;;;;;;5.95;1.95;;;11.30;99.90;;;;;;4106541;28;20675;-91
2022/11/15 06:02:05;;;;;;;8.15;2.30;;;11.10;99.90;;;;;;4111781;28;20198;-96
2022/11/15 06:04:44;;;;;;;7.28;2.42;;;10.90;99.90;;;;;;4098890;28;20182;-91
2022/11/15 06:07:03;;;;;;;8.07;2.40;;;11.00;99.90;;;;;;4112762;28;20174;-92
2022/11/15 06:09:22;;;;;;;7.30;2.50;;;11.00;99.90;;;;;;4109394;28;20237;-91
2022/11/15 06:11:42;;;;;;;7.30;2.15;;;10.90;99.90;;;;;;4108859;28;20321;-92
2022/11/15 06:14:02;;;;;;;7.45;2.20;;;10.90;99.90;;;;;;4108609;28;20210;-96
2022/11/15 06:16:22;;;;;;;12.32;2.72;;;10.90;99.90;;;;;;4108805;28;20273;-92
2022/11/15 06:18:41;;;;;;;14.38;2.90;;;10.80;99.90;;;;;;4108260;28;20201;-93
2022/11/15 06:21:01;;;;;;;13.73;2.97;;;10.90;99.90;;;;;;4109692;29;20272;-93
2022/11/15 06:23:25;;;;;;;8.15;2.90;;;10.90;99.90;;;;;;4098710;28;20218;-94
2022/11/15 06:25:47;;;;;;;15.27;3.17;;;10.70;99.90;;;;;;4097044;28;20202;-92
2022/11/15 06:28:06;;;;;;;10.55;3.00;;;10.60;99.90;;;;;;4113140;28;20202;-95
2022/11/15 06:30:33;;;;;;;13.00;3.20;;;10.60;99.90;;;;;;4095074;29;20190;-95
2022/11/15 06:33:04;;;;;;;15.02;3.17;;;10.50;99.90;;;;;;4094410;28;20250;-91
2022/11/15 06:35:24;;;;;;;10.13;2.90;;;10.50;99.90;;;;;;4111552;28;20285;-92
2022/11/15 06:37:43;;;;;;;10.85;3.45;;;10.40;99.90;;;;;;4109327;28;20221;-92
2022/11/15 06:40:02;;;;;;;12.68;3.42;;;10.50;99.90;;;;;;4107614;28;20189;-96
2022/11/15 06:42:21;;;;;;;11.80;3.15;;;10.50;99.90;;;;;;4105208;28;20690;-93
2022/11/15 06:44:41;;;;;;;7.85;3.58;;;10.50;99.90;;;;;;4106370;28;20274;-95
2022/11/15 06:47:01;;;;;;;8.38;4.00;;;10.60;99.90;;;;;;4105835;28;20245;-96
2022/11/15 06:49:37;;;;;;;14.23;4.70;;;10.60;99.90;;;;;;4105703;28;20185;-92
2022/11/15 06:51:59;;;;;;;12.48;4.25;;;10.60;99.90;;;;;;4109313;28;20234;-94
2022/11/15 06:54:20;;;;;;;10.27;4.40;;;10.60;99.90;;;;;;4094298;29;20294;-92
2022/11/15 06:56:39;;;;;;;7.63;4.03;;;10.60;99.90;;;;;;4107858;28;20330;-92
2022/11/15 06:59:03;;;;;;;8.63;4.38;;;10.40;99.90;;;;;;4107401;28;20186;-94
2022/11/15 07:01:22;;;;;;;13.40;4.25;;;10.60;99.90;;;;;;4107213;29;20238;-92
2022/11/15 07:03:46;;;;;;;8.88;5.07;;;10.70;99.90;;;;;;4108366;28;20213;-91
2022/11/15 07:06:10;;;;;;;13.52;4.28;;;10.70;99.90;;;;;;4091957;28;20222;-96
2022/11/15 07:08:41;;;;;;;11.20;4.68;;;10.70;99.90;;;;;;4105535;28;20194;-93
2022/11/15 07:11:23;;;;;;;13.23;4.65;;;10.60;99.90;;;;;;4106042;28;20190;-93
2022/11/15 07:13:50;;;;;;;14.38;4.63;;;10.80;99.90;;;;;;4097666;28;20233;-93
2022/11/15 07:16:10;;;;;;;14.70;4.53;;;10.90;99.90;;;;;;4104640;28;20702;-92
2022/11/15 07:18:49;;;;;;;12.93;4.85;;;10.80;99.90;;;;;;4110909;28;20194;-93
2022/11/15 07:21:12;;;;;;;9.95;4.30;;;10.70;99.90;;;;;;4107158;28;20194;-94
2022/11/15 07:25:43;;;;;;;12.55;4.40;;;10.60;99.90;;;;;;4096422;28;20218;-93
2022/11/15 07:28:06;;;;;;;10.33;4.53;;;10.60;99.90;;;;;;4099700;28;20182;-94
2022/11/15 07:30:29;;;;;;;11.75;4.22;;;10.50;99.90;;;;;;4097707;29;20196;-93
2022/11/15 07:33:00;;;;;;;9.60;4.30;;;10.70;99.90;;;;;;4112726;28;20202;-93
2022/11/15 07:35:24;;;;;;;7.40;4.10;;;10.60;99.90;;;;;;4110536;28;20182;-91
2022/11/15 07:37:55;;;;;;;15.48;4.70;;;10.70;99.90;;;;;;4106130;28;20174;-92
2022/11/15 07:40:29;;;;;;;11.65;4.07;;;10.80;99.90;;;;;;4092211;28;20181;-92
2022/11/15 07:42:54;;;;;;;9.02;4.45;;;11.00;99.90;;;;;;4113404;28;20178;-94
2022/11/15 07:48:10;;;;;;;9.20;3.90;;;11.30;99.90;;;;;;4096577;28;20239;-93
2022/11/15 07:50:37;;;;;;;5.75;3.63;;;11.30;99.90;;;;;;4111577;28;20211;-94
2022/11/15 07:53:12;;;;;;;10.73;3.70;;;11.40;99.90;;;;;;4098535;28;20258;-94
2022/11/15 07:55:34;;;;;;;13.65;3.60;;;11.70;99.90;;;;;;4112639;28;20643;-94
2022/11/15 07:58:00;;;;;;;8.52;3.00;;;11.80;99.90;;;;;;4109487;28;20170;-95
2022/11/15 08:00:39;;;;;;;8.88;2.63;;;12.00;99.90;;;;;;4092453;28;20667;-94
2022/11/15 08:03:43;;;;;;;6.25;2.30;;;12.00;99.90;;;;;;4104006;28;20210;-94
2022/11/15 08:06:37;;;;;;;10.95;2.28;;;12.00;99.90;;;;;;4099501;28;20233;-94
2022/11/15 08:08:59;;;;;;;9.27;2.10;;;12.20;99.90;;;;;;4111702;28;20178;-93
2022/11/15 08:11:36;;;;;;;8.63;2.38;;;11.80;99.90;;;;;;4096207;28;20222;-92
2022/11/15 08:14:00;;;;;;;10.40;2.20;;;11.80;99.90;;;;;;4090571;29;20338;-92
2022/11/15 08:16:19;;;;;;;6.47;1.88;;;11.90;99.90;;;;;;4096628;28;20185;-95
2022/11/15 08:18:47;;;;;;;9.40;1.70;;;12.00;99.90;;;;;;4109351;28;20177;-94
2022/11/15 08:23:41;;;;;;;9.13;1.77;;;12.30;99.90;;;;;;4182149;23;20269;-94
2022/11/15 08:26:24;;;;;;;8.98;1.42;;;12.50;99.90;;;;;;4105843;28;20218;-93
2022/11/15 08:28:47;;;;;;;5.93;1.48;;;12.60;99.90;;;;;;4123375;28;20194;-94
2022/11/15 08:31:21;;;;;;;5.85;1.42;;;12.60;99.90;;;;;;4124528;28;20221;-93
2022/11/15 08:33:57;;;;;;;;;;;;;;;;;;;;;
2022/11/15 08:36:28;;;;;;;9.50;1.58;;;12.50;99.90;;;;;;4111249;28;20198;-94
2022/11/15 08:38:58;;;;;;;8.48;1.55;;;12.70;99.90;;;;;;4111858;28;20201;-94
2022/11/15 08:41:36;;;;;;;5.82;1.55;;;12.60;99.90;;;;;;4121387;28;20245;-95
2022/11/15 08:44:07;;;;;;;10.63;1.50;;;12.50;99.90;;;;;;4124999;28;20197;-93
2022/11/15 08:46:50;;;;;;;8.55;1.55;;;12.50;99.90;;;;;;4109641;28;20222;-96
2022/11/15 08:49:24;;;;;;;10.65;1.40;;;12.40;99.90;;;;;;4121824;28;20188;-95
2022/11/15 08:52:11;;;;;;;7.18;1.45;;;12.30;99.90;;;;;;4119737;28;20232;-94
2022/11/15 08:55:17;;;;;;;;;;;;;;;;;;;;;
2022/11/15 08:58:05;;;;;;;4.70;1.25;;;12.80;99.90;;;;;;4113152;28;20220;-93
2022/11/15 09:11:23;;;;;;;3.20;1.00;;;13.20;99.90;;;;;;4207052;23;20541;-95
2022/11/15 09:14:10;;;;;;;;;;;;;;;;;;;;;
2022/11/15 09:16:58;;;;;;;5.95;1.30;;;13.70;99.90;;;;;;4092081;29;20664;-96
2022/11/15 09:19:34;;;;;;;5.80;1.23;;;13.90;99.90;;;;;;4119275;23;20241;-95
2022/11/15 09:22:47;;;;;;;3.17;1.05;;;14.10;99.90;;;;;;4111767;29;20214;-95
2022/11/15 09:25:11;;;;;;;9.25;1.40;;;14.20;99.90;;;;;;4094286;29;20209;-93
2022/11/15 09:27:40;;;;;;;5.68;1.27;;;14.20;99.90;;;;;;4094080;29;20174;-95
2022/11/15 09:30:13;;;;;;;5.35;1.17;;;13.90;99.90;;;;;;4094631;29;20191;-94
2022/11/15 09:32:39;;;;;;;9.52;0.95;;;13.80;99.90;;;;;;4090579;29;20226;-95
2022/11/15 09:35:09;;;;;;;7.97;1.13;;;13.60;99.90;;;;;;4092629;29;20218;-94
2022/11/15 09:37:46;;;;;;;7.05;1.10;;;13.60;99.90;;;;;;4092647;28;20219;-96
2022/11/15 09:40:40;;;;;;;4.82;1.10;;;13.60;99.90;;;;;;4091510;28;20186;-94
2022/11/15 09:43:33;;;;;;;5.20;1.23;;;13.50;99.90;;;;;;4099968;28;20244;-95
2022/11/15 09:46:14;;;;;;;5.95;1.13;;;13.40;99.90;;;;;;4087352;29;20545;-95
2022/11/15 09:48:58;;;;;;;7.57;1.30;;;13.30;99.90;;;;;;4072448;29;20193;-94
2022/11/15 09:51:47;;;;;;;6.35;1.17;;;13.40;99.90;;;;;;4031770;29;20280;-96
2022/11/15 09:54:31;;;;;;;10.40;1.40;;;13.50;99.90;;;;;;4091267;29;20199;-92
2022/11/15 09:56:36;;;;;;;7.32;1.10;;;13.60;99.90;;;;;;4089067;29;20180;-94
2022/11/15 09:58:45;;;;;;;8.70;1.27;;;13.70;99.90;;;;;;4073655;29;20168;-93
2022/11/15 10:01:04;;;;;;;9.85;1.27;;;13.80;99.90;;;;;;4089930;29;20663;-96
2022/11/15 10:03:18;;;;;;;8.57;1.00;;;13.70;99.90;;;;;;4089488;29;20203;-96
2022/11/15 10:05:24;;;;;;;9.82;1.42;;;13.80;99.90;;;;;;4092385;28;20183;-95
2022/11/15 10:08:11;;;;;;;7.43;1.10;;;13.80;99.90;;;;;;4090344;29;20191;-93
2022/11/15 10:10:43;;;;;;;8.30;1.42;;;13.60;99.90;;;;;;4107116;28;20174;-95
2022/11/15 10:12:52;;;;;;;10.05;1.40;;;13.70;99.90;;;;;;4088825;29;20238;-94
2022/11/15 10:17:33;;;;;;;10.10;1.38;;;13.90;99.90;;;;;;4132758;23;20278;-95
2022/11/15 10:20:36;;;;;;;8.07;1.45;;;13.80;99.90;;;;;;4108106;28;20194;-93
2022/11/15 10:25:23;;;;;;;8.13;1.10;;;13.90;99.90;;;;;;4111933;28;20207;-95
2022/11/15 10:28:01;;;;;;;10.55;1.27;;;13.90;99.90;;;;;;4104958;28;20266;-93
2022/11/15 10:31:09;;;;;;;5.78;1.15;;;14.00;99.90;;;;;;4106111;28;20262;-95
2022/11/15 10:33:47;;;;;;;;;;;;;;;;;;;;;
2022/11/15 10:38:54;;;;;;;11.93;1.27;;;14.10;99.90;;;;;;4064928;29;20189;-96
2022/11/15 10:41:37;;;;;;;9.73;1.55;;;14.20;99.90;;;;;;4083195;29;20192;-95
2022/11/15 10:44:06;;;;;;;9.32;1.20;;;14.30;99.90;;;;;;4088835;29;20655;-96
2022/11/15 10:46:29;;;;;;;8.70;1.20;;;14.40;99.90;;;;;;4085773;29;20203;-94
2022/11/15 10:48:40;;;;;;;6.57;0.80;;;14.30;99.90;;;;;;4087176;29;20188;-92
2022/11/15 10:50:52;;;;;;;5.75;0.90;;;14.30;99.90;;;;;;4091302;29;20266;-94
2022/11/15 10:53:00;;;;;;;8.35;1.35;;;14.50;99.90;;;;;;4108882;28;20238;-96
2022/11/15 10:55:16;;;;;;;5.78;1.00;;;14.40;99.90;;;;;;4108184;28;20170;-96
2022/11/15 10:57:36;;;;;;;8.70;1.55;;;14.60;99.90;;;;;;4091586;29;20218;-96
2022/11/15 10:59:55;;;;;;;11.90;1.73;;;14.60;99.90;;;;;;4093220;28;20244;-94
2022/11/15 11:02:34;;;;;;;10.95;1.50;;;14.60;99.90;;;;;;4090528;29;20187;-93
2022/11/15 11:05:43;;;;;;;11.13;1.40;;;14.40;99.90;;;;;;4110880;28;20186;-94
2022/11/15 11:08:00;;;;;;;7.47;1.15;;;14.50;99.90;;;;;;4088611;29;20183;-94
2022/11/15 11:10:35;;;;;;;5.15;0.80;;;14.60;99.90;;;;;;4091379;29;20183;-94
2022/11/15 11:12:50;;;;;;;11.40;1.38;;;14.60;99.90;;;;;;4106946;28;20210;-93
2022/11/15 11:14:53;;;;;;;13.02;1.30;;;14.70;99.90;;;;;;4088735;29;20175;-95
2022/11/15 11:17:29;;;;;;;9.23;0.98;;;14.60;99.90;;;;;;4104858;28;20179;-93
2022/11/15 11:19:41;;;;;;;7.05;1.00;;;14.70;99.90;;;;;;4107882;28;20265;-93
2022/11/15 11:22:25;;;;;;;7.28;0.70;;;14.80;99.90;;;;;;4088570;29;20194;-96
2022/11/15 11:24:41;;;;;;;13.00;1.20;;;14.90;99.90;;;;;;4087671;29;20303;-93
2022/11/15 11:27:25;;;;;;;7.32;0.90;;;14.80;99.90;;;;;;4103908;28;20178;-95
2022/11/15 11:29:45;;;;;;;10.00;0.90;;;14.70;99.90;;;;;;4071374;29;20196;-93
2022/11/15 11:35:53;;;;;;;4.70;1.15;;;14.40;99.90;;;;;;4088313;29;20262;-94
2022/11/15 11:38:34;;;;;;;6.47;1.00;;;14.30;99.90;;;;;;4104065;28;20175;-95
2022/11/15 11:40:45;;;;;;;9.43;1.10;;;14.60;99.90;;;;;;4106099;28;20181;-95
2022/11/15 11:43:01;;;;;;;9.18;1.02;;;14.50;99.90;;;;;;4102230;28;20797;-94
2022/11/15 11:45:27;;;;;;;6.30;1.20;;;14.60;99.90;;;;;;4105852;28;20229;-95
2022/11/15 11:47:48;;;;;;;7.28;1.23;;;14.50;99.90;;;;;;4086705;29;20334;-96
2022/11/15 11:50:22;;;;;;;13.43;1.52;;;14.70;99.90;;;;;;4104216;28;20191;-93
2022/11/15 11:52:38;;;;;;;6.60;1.10;;;14.70;99.90;;;;;;4071837;29;20216;-95
2022/11/15 11:55:05;;;;;;;8.43;1.02;;;14.60;99.90;;;;;;4090430;29;20176;-96
2022/11/15 11:57:40;;;;;;;5.47;0.90;;;14.70;99.90;;;;;;4088216;28;20187;-95
2022/11/15 12:00:49;;;;;;;7.00;1.00;;;14.60;99.90;;;;;;4088621;29;20210;-94
2022/11/15 12:03:40;;;;;;;6.22;1.00;;;14.90;99.90;;;;;;4100226;28;20201;-94
2022/11/15 12:06:02;;;;;;;6.85;1.80;;;14.80;99.90;;;;;;4086877;29;20176;-95
2022/11/15 12:08:28;;;;;;;7.05;1.00;;;14.80;99.90;;;;;;4105350;28;20227;-94
2022/11/15 12:10:33;;;;;;;7.35;1.30;;;14.70;99.90;;;;;;4102507;28;20187;-94
2022/11/15 12:13:13;;;;;;;7.63;1.33;;;14.80;99.90;;;;;;4086069;29;20219;-96
2022/11/15 12:15:26;;;;;;;5.97;1.40;;;14.60;99.90;;;;;;4086717;29;20172;-93
2022/11/15 12:17:35;;;;;;;5.38;1.00;;;14.80;99.90;;;;;;4101636;28;20596;-94
2022/11/15 12:19:42;;;;;;;4.43;0.82;;;14.80;99.90;;;;;;4085744;29;20246;-94
2022/11/15 12:22:04;;;;;;;12.25;1.20;;;15.00;99.90;;;;;;4086686;29;20251;-96
2022/11/15 12:24:54;;;;;;;;;;;;;;;;;;;;;
2022/11/15 12:27:39;;;;;;;4.15;0.82;;;15.00;99.90;;;;;;4078174;29;20195;-92
2022/11/15 12:29:52;;;;;;;6.97;0.75;;;14.70;99.90;;;;;;4086390;29;20172;-94
2022/11/15 12:31:56;;;;;;;5.85;0.90;;;14.90;99.90;;;;;;4088300;29;20210;-96
2022/11/15 12:34:27;;;;;;;5.53;0.90;;;14.90;99.90;;;;;;4087406;29;20195;-95
2022/11/15 12:36:41;;;;;;;3.95;0.90;;;15.10;99.90;;;;;;4086616;29;20205;-95
2022/11/15 12:39:02;;;;;;;7.47;1.10;;;15.20;99.90;;;;;;4086855;29;20180;-93
2022/11/15 12:41:16;;;;;;;3.13;0.75;;;15.30;99.90;;;;;;4107703;28;20179;-93
2022/11/15 12:43:39;;;;;;;4.05;0.70;;;15.20;99.90;;;;;;4088575;29;20199;-95
2022/11/15 12:45:49;;;;;;;5.22;0.57;;;15.20;99.90;;;;;;4086429;29;20608;-94
2022/11/15 12:48:16;;;;;;;6.20;0.90;;;15.10;99.90;;;;;;4085255;29;20175;-96
2022/11/15 12:51:11;;;;;;;5.38;0.70;;;14.70;99.90;;;;;;4075817;29;20760;-96
2022/11/15 12:53:27;;;;;;;8.00;0.93;;;14.90;99.90;;;;;;4088532;29;20310;-93
2022/11/15 12:55:34;;;;;;;3.38;0.98;;;14.90;99.90;;;;;;4104540;28;20179;-94
2022/11/15 12:57:42;;;;;;;3.78;1.02;;;15.10;99.90;;;;;;4089747;29;20171;-93
2022/11/15 13:00:13;;;;;;;1.75;0.70;;;15.10;99.90;;;;;;4102980;28;20262;-94
2022/11/15 13:02:45;;;;;;;4.07;0.98;;;15.20;99.90;;;;;;4095204;28;20197;-93
2022/11/15 13:05:19;;;;;;;4.22;0.80;;;15.30;99.90;;;;;;4090401;29;20273;-94
2022/11/15 13:07:39;;;;;;;2.22;0.70;;;15.40;99.90;;;;;;4087561;28;20396;-94
2022/11/15 13:09:46;;;;;;;4.88;0.65;;;15.60;99.90;;;;;;4086505;29;20239;-94
2022/11/15 13:12:13;;;;;;;6.13;1.05;;;15.20;99.90;;;;;;4088932;29;20215;-93
2022/11/15 13:14:50;;;;;;;4.43;0.85;;;15.20;99.90;;;;;;4102066;28;20195;-94
2022/11/15 13:16:58;;;;;;;2.40;0.73;;;15.30;99.90;;;;;;4090599;29;20694;-94
2022/11/15 13:19:01;;;;;;;2.08;0.68;;;15.30;99.90;;;;;;4089593;29;20174;-95
2022/11/15 13:23:42;;;;;;;4.00;0.90;;;15.10;99.90;;;;;;4086709;28;20213;-94
2022/11/15 13:26:19;;;;;;;6.10;0.70;;;15.10;99.90;;;;;;4103677;28;20175;-96